Map

Track Data

SID SEASON NUMBER BASIN SUBBASIN NAME ISO_TIME NATURE LAT LON WMO_WIND WMO_PRES WMO_AGENCY TRACK_TYPE DIST2LAND LANDFALL IFLAG USA_AGENCY USA_ATCF_ID USA_LAT USA_LON USA_RECORD USA_STATUS USA_WIND USA_PRES USA_SSHS USA_R34_NE USA_R34_SE USA_R34_SW USA_R34_NW USA_R50_NE USA_R50_SE USA_R50_SW USA_R50_NW USA_R64_NE USA_R64_SE USA_R64_SW USA_R64_NW USA_POCI USA_ROCI USA_RMW USA_EYE TOKYO_LAT TOKYO_LON TOKYO_GRADE TOKYO_WIND TOKYO_PRES TOKYO_R50_DIR TOKYO_R50_LONG TOKYO_R50_SHORT TOKYO_R30_DIR TOKYO_R30_LONG TOKYO_R30_SHORT TOKYO_LAND CMA_LAT CMA_LON CMA_CAT CMA_WIND CMA_PRES HKO_LAT HKO_LON HKO_CAT HKO_WIND HKO_PRES NEWDELHI_LAT NEWDELHI_LON NEWDELHI_GRADE NEWDELHI_WIND NEWDELHI_PRES NEWDELHI_CI NEWDELHI_DP NEWDELHI_POCI REUNION_LAT REUNION_LON REUNION_TYPE REUNION_WIND REUNION_PRES REUNION_TNUM REUNION_CI REUNION_RMW REUNION_R34_NE REUNION_R34_SE REUNION_R34_SW REUNION_R34_NW REUNION_R50_NE REUNION_R50_SE REUNION_R50_SW REUNION_R50_NW REUNION_R64_NE REUNION_R64_SE REUNION_R64_SW REUNION_R64_NW BOM_LAT BOM_LON BOM_TYPE BOM_WIND BOM_PRES BOM_TNUM BOM_CI BOM_RMW BOM_R34_NE BOM_R34_SE BOM_R34_SW BOM_R34_NW BOM_R50_NE BOM_R50_SE BOM_R50_SW BOM_R50_NW BOM_R64_NE BOM_R64_SE BOM_R64_SW BOM_R64_NW BOM_ROCI BOM_POCI BOM_EYE BOM_POS_METHOD BOM_PRES_METHOD NADI_LAT NADI_LON NADI_CAT NADI_WIND NADI_PRES WELLINGTON_LAT WELLINGTON_LON WELLINGTON_WIND WELLINGTON_PRES DS824_LAT DS824_LON DS824_STAGE DS824_WIND DS824_PRES TD9636_LAT TD9636_LON TD9636_STAGE TD9636_WIND TD9636_PRES TD9635_LAT TD9635_LON TD9635_WIND TD9635_PRES TD9635_ROCI NEUMANN_LAT NEUMANN_LON NEUMANN_CLASS NEUMANN_WIND NEUMANN_PRES MLC_LAT MLC_LON MLC_CLASS MLC_WIND MLC_PRES USA_GUST BOM_GUST BOM_GUST_PER REUNION_GUST REUNION_GUST_PER USA_SEAHGT USA_SEARAD_NE USA_SEARAD_SE USA_SEARAD_SW USA_SEARAD_NW STORM_SPEED STORM_DIR
1915174N17088 1915 17 NI BB NOT_NAMED 1915-06-23 00:00:00 TS 16.9000 87.5000 main 365 347 _________O____ -1 16.9000 87.5000 TC 45 5 278
1915174N17088 1915 17 NI BB NOT_NAMED 1915-06-23 03:00:00 TS 16.9351 87.2267 main 347 315 _________PO___ -1 16.9527 87.0901 TC 45 16.9000 87.5000 3 6 277
1915174N17088 1915 17 NI BB NOT_NAMED 1915-06-23 06:00:00 TS 16.9779 86.8577 main 315 284 _________OP___ -1 17.0000 86.7000 TC 45 16.9448 87.0943 3 7 277
1915174N17088 1915 17 NI BB NOT_NAMED 1915-06-23 09:00:00 TS 17.0205 86.4960 main 284 253 _________PP___ -1 17.0424 86.3424 TC 45 16.9912 86.7007 3 7 278
1915174N17088 1915 17 NI BB NOT_NAMED 1915-06-23 12:00:00 TS 17.0710 86.1659 main 253 223 _________OP___ -1 17.1000 86.0000 TC 45 17.0421 86.3318 3 7 281
1915174N17088 1915 17 NI BB NOT_NAMED 1915-06-23 15:00:00 TS 17.1425 85.8212 main 223 192 _________PO___ -1 17.1850 85.6425 TC 45 17.1000 86.0000 3 7 285
1915174N17088 1915 17 NI BB NOT_NAMED 1915-06-23 18:00:00 TS 17.2350 85.5042 main 192 169 _________OP___ -1 17.3000 85.3000 TC 45 17.1700 85.7085 3 6 290
1915174N17088 1915 17 NI BB NOT_NAMED 1915-06-23 21:00:00 TS 17.3428 85.2340 main 161 123 _________PP___ -1 17.4196 85.0446 TC 45 17.2660 85.4234 3 6 295
1915174N17088 1915 17 NI BB NOT_NAMED 1915-06-24 00:00:00 TS 17.5021 84.9009 main 123 74 _________OP___ -1 17.6000 84.7000 TC 45 17.4041 85.1018 3 9 296
1915174N17088 1915 17 NI BB NOT_NAMED 1915-06-24 03:00:00 TS 17.7351 84.3976 main 74 15 _________PO___ -1 17.8703 84.0951 TC 41 17.6000 84.7000 3 12 296
1915174N17088 1915 17 NI BB NOT_NAMED 1915-06-24 06:00:00 TS 18.0263 83.7627 main 15 0 _________OP___ -1 18.2000 83.4000 TC 37 17.8525 84.1255 3 14 297
1915174N17088 1915 17 NI BB NOT_NAMED 1915-06-24 09:00:00 TS 18.3484 83.1180 main 0 0 _________PP___ -1 18.5350 82.7624 TC 33 18.1619 83.4735 3 14 300
1915174N17088 1915 17 NI BB NOT_NAMED 1915-06-24 12:00:00 TS 18.7075 82.5048 main 0 0 _________OP___ -1 18.9000 82.2000 TC 30 18.5151 82.8097 3 13 305
1915174N17088 1915 17 NI BB NOT_NAMED 1915-06-24 15:00:00 TS 19.0923 81.9848 main 0 0 _________PO___ -1 19.2847 81.7696 TC 30 18.9000 82.2000 1 12 312
1915174N17088 1915 17 NI BB NOT_NAMED 1915-06-24 18:00:00 TS 19.5017 81.5593 main 0 0 _________OP___ -1 19.7000 81.4000 TC 30 19.3035 81.7187 1 12 317
1915174N17088 1915 17 NI BB NOT_NAMED 1915-06-24 21:00:00 TS 19.9457 81.1435 main 0 0 _________PP___ -1 20.1575 80.9851 TC 30 19.7339 81.3020 1 12 320
1915174N17088 1915 17 NI BB NOT_NAMED 1915-06-25 00:00:00 TS 20.3862 80.7672 main 0 0 _________OP___ -1 20.6000 80.6000 TC 30 20.1725 80.9344 1 11 322
1915174N17088 1915 17 NI BB NOT_NAMED 1915-06-25 03:00:00 TS 20.7787 80.4423 main 0 0 _________PO___ -1 20.9574 80.2846 TC 30 20.6000 80.6000 1 10 322
1915174N17088 1915 17 NI BB NOT_NAMED 1915-06-25 06:00:00 TS 21.1445 80.1292 main 0 0 _________OP___ -1 21.3000 80.0000 TC 30 20.9890 80.2584 1 10 322
1915174N17088 1915 17 NI BB NOT_NAMED 1915-06-25 09:00:00 TS 21.5323 79.8196 main 0 0 _________PP___ -1 21.7000 79.6925 TC 30 21.3646 79.9466 1 10 324
1915174N17088 1915 17 NI BB NOT_NAMED 1915-06-25 12:00:00 TS 21.9164 79.5308 main 0 0 _________OP___ -1 22.1000 79.4000 TC 30 21.7329 79.6616 1 9 325
1915174N17088 1915 17 NI BB NOT_NAMED 1915-06-25 15:00:00 TS 22.2750 79.2674 main 0 0 _________PO___ -1 22.4500 79.1348 TC 30 22.1000 79.4000 1 8 327
1915174N17088 1915 17 NI BB NOT_NAMED 1915-06-25 18:00:00 TS 22.6119 79.0475 main 0 0 _________OP___ -1 22.8000 78.9000 TC 30 22.4708 79.1581 1 8 331
1915174N17088 1915 17 NI BB NOT_NAMED 1915-06-25 21:00:00 TS 22.9822 78.8357 main 0 0 _________PP___ -1 23.1875 78.6928 TC 30 22.8453 78.9310 1 8 333
1915174N17088 1915 17 NI BB NOT_NAMED 1915-06-26 00:00:00 TS 23.3481 78.6423 main 0 0 _________OP___ -1 23.6000 78.5000 TC 30 23.2221 78.7134 1 7 333
1915174N17088 1915 17 NI BB NOT_NAMED 1915-06-26 03:00:00 NR 23.6000 78.5000 main 0 __________O___ -1 TC 23.6000 78.5000 1 6 332

About IBTrACS Database

This database is a web-friendly format of International Best Track Archive for Climate Stewardship (IBTrACS), a global best track data archive curated by NOAA dating back to 1842.

Updated: 2021-11-26